Time;durP1;ratioP1;P1;durP2;ratioP2;P2;SDS_P1;SDS_P2;PMS_P1;PMS_P2;Temp;Humidity;BMP_temperature;BMP_pressure;BME280_temperature;BME280_humidity;BME280_pressure;Samples;Min_cycle;Max_cycle;Signal;HPM_P1;HPM_P2
2024/02/21 01:07:01;;;;;;;1.27;0.85;;;17.60;71.10;;;;;;6265580;22;20617;-83
2024/02/21 01:09:27;;;;;;;2.17;1.00;;;17.60;71.20;;;;;;6193149;23;20185;-84
2024/02/21 01:11:53;;;;;;;3.47;0.95;;;17.50;71.00;;;;;;6193620;23;20133;-85
2024/02/21 01:14:19;;;;;;;1.52;0.73;;;17.70;71.00;;;;;;6193107;23;20160;-85
2024/02/21 01:16:45;;;;;;;1.60;0.85;;;17.60;70.90;;;;;;6152260;23;20151;-85
2024/02/21 01:19:10;;;;;;;2.65;0.90;;;17.60;71.20;;;;;;6127479;23;20271;-84
2024/02/21 01:21:36;;;;;;;1.80;1.00;;;17.60;71.10;;;;;;6127641;23;20162;-84
2024/02/21 01:24:02;;;;;;;1.08;0.80;;;17.60;71.40;;;;;;6127152;23;20281;-85
2024/02/21 01:26:28;;;;;;;2.90;1.00;;;17.50;71.50;;;;;;6151931;23;20151;-84
2024/02/21 01:28:54;;;;;;;1.23;1.00;;;17.50;71.30;;;;;;6127383;23;20583;-85
2024/02/21 01:31:20;;;;;;;2.50;1.00;;;17.50;71.10;;;;;;6127075;23;20559;-84
2024/02/21 01:33:45;;;;;;;1.80;1.08;;;17.50;71.50;;;;;;6152270;23;20467;-85
2024/02/21 01:36:11;;;;;;;2.40;1.15;;;17.50;71.10;;;;;;6128121;23;20183;-85
2024/02/21 01:38:37;;;;;;;2.13;1.02;;;17.60;70.90;;;;;;6128399;23;20820;-85
2024/02/21 01:41:03;;;;;;;3.75;1.08;;;17.60;70.90;;;;;;6129815;23;20147;-84
2024/02/21 01:43:29;;;;;;;2.05;1.00;;;17.50;71.10;;;;;;6153719;23;20160;-85
2024/02/21 01:45:57;;;;;;;2.05;0.93;;;17.50;71.40;;;;;;6152894;23;20175;-84
2024/02/21 01:48:25;;;;;;;1.50;0.90;;;17.50;71.30;;;;;;6179491;23;20150;-84
2024/02/21 01:50:51;;;;;;;2.17;1.10;;;17.50;71.00;;;;;;6168236;23;20476;-84
2024/02/21 01:53:20;;;;;;;1.70;1.02;;;17.50;71.00;;;;;;6193275;23;20624;-84
2024/02/21 01:55:45;;;;;;;2.10;0.82;;;17.50;71.50;;;;;;6193884;23;20130;-85
2024/02/21 01:58:14;;;;;;;1.52;1.10;;;17.50;70.70;;;;;;6169126;23;20219;-84
2024/02/21 02:00:46;;;;;;;2.03;1.00;;;17.50;70.90;;;;;;6219109;23;20472;-85
2024/02/21 02:03:19;;;;;;;3.30;0.95;;;17.50;71.00;;;;;;6194996;23;20122;-84
2024/02/21 02:05:46;;;;;;;1.80;0.98;;;17.50;71.00;;;;;;6171220;23;20207;-85
2024/02/21 02:08:14;;;;;;;2.13;0.90;;;17.40;71.20;;;;;;6169086;23;20528;-85
2024/02/21 02:20:54;;;;;;;1.50;1.02;;;17.50;71.20;;;;;;6276432;22;20222;-84
2024/02/21 02:23:25;;;;;;;1.58;0.82;;;17.40;70.80;;;;;;6251044;22;20168;-84
2024/02/21 02:28:26;;;;;;;2.70;0.90;;;17.50;71.10;;;;;;6272702;22;20281;-85
2024/02/21 02:30:52;;;;;;;1.40;0.85;;;17.40;71.00;;;;;;6199705;22;20560;-85
2024/02/21 02:33:18;;;;;;;1.27;0.90;;;17.50;70.80;;;;;;6199688;22;20140;-85
2024/02/21 02:35:44;;;;;;;1.75;0.85;;;17.50;71.00;;;;;;6250855;22;20150;-85
2024/02/21 02:38:11;;;;;;;2.95;1.02;;;17.40;70.90;;;;;;6199607;22;20164;-85
2024/02/21 02:40:38;;;;;;;2.17;0.90;;;17.50;70.90;;;;;;6200009;22;20141;-85
2024/02/21 02:43:03;;;;;;;1.67;0.80;;;17.40;70.80;;;;;;6200368;22;20172;-85
2024/02/21 02:45:29;;;;;;;2.83;1.15;;;17.50;70.60;;;;;;6200290;22;20227;-85
2024/02/21 02:47:56;;;;;;;1.85;0.90;;;17.50;70.90;;;;;;6250768;22;20191;-85
2024/02/21 02:50:24;;;;;;;1.90;1.00;;;17.50;70.50;;;;;;6225359;22;20128;-85
2024/02/21 02:52:50;;;;;;;1.77;1.08;;;17.50;70.50;;;;;;6199938;22;20490;-85
2024/02/21 02:55:16;;;;;;;1.35;1.00;;;17.50;70.30;;;;;;6200386;22;20141;-85
2024/02/21 02:57:42;;;;;;;1.75;1.00;;;17.50;70.50;;;;;;6199967;22;20141;-85
2024/02/21 03:00:09;;;;;;;1.15;1.00;;;17.50;70.70;;;;;;6224783;22;20152;-85
2024/02/21 03:02:35;;;;;;;1.60;0.98;;;17.50;70.30;;;;;;6224567;22;20208;-85
2024/02/21 03:05:01;;;;;;;1.83;0.90;;;17.40;70.30;;;;;;6224068;22;20189;-84
2024/02/21 03:07:27;;;;;;;4.05;1.10;;;17.50;70.50;;;;;;6250576;22;20133;-84
2024/02/21 03:09:53;;;;;;;3.47;0.80;;;17.50;70.30;;;;;;6199255;22;20141;-85
2024/02/21 03:12:24;;;;;;;1.00;0.90;;;17.50;70.90;;;;;;6249880;22;20151;-85
2024/02/21 03:14:50;;;;;;;1.52;1.00;;;17.50;70.40;;;;;;6226428;22;20208;-85
2024/02/21 03:17:16;;;;;;;1.98;1.00;;;17.40;70.70;;;;;;6224789;22;20167;-84
2024/02/21 03:19:42;;;;;;;2.88;1.00;;;17.40;70.40;;;;;;6224682;22;20141;-84
2024/02/21 03:22:08;;;;;;;1.35;0.93;;;17.40;70.50;;;;;;6199861;22;20435;-85
2024/02/21 03:24:34;;;;;;;3.17;1.10;;;17.40;70.60;;;;;;6224349;22;20161;-85
2024/02/21 03:26:59;;;;;;;1.70;1.10;;;17.40;70.10;;;;;;6199664;22;20248;-84
2024/02/21 03:29:25;;;;;;;3.00;1.17;;;17.40;70.30;;;;;;6223760;22;20196;-85
2024/02/21 03:31:51;;;;;;;1.25;1.00;;;17.50;70.40;;;;;;6199358;22;20137;-85
2024/02/21 03:47:45;;;;;;;2.13;0.82;;;17.40;70.30;;;;;;6275513;22;20132;-85
2024/02/21 03:50:11;;;;;;;1.40;0.75;;;17.40;70.80;;;;;;6198940;22;20152;-85
2024/02/21 03:52:37;;;;;;;2.05;1.17;;;17.40;70.40;;;;;;6249942;22;20125;-85
2024/02/21 03:55:02;;;;;;;1.67;0.80;;;17.40;70.50;;;;;;6198771;22;20152;-85
2024/02/21 03:57:29;;;;;;;1.55;0.90;;;17.40;70.00;;;;;;6193966;22;20152;-85
2024/02/21 03:59:54;;;;;;;2.15;1.02;;;17.40;70.10;;;;;;6224631;22;20189;-84
2024/02/21 04:02:20;;;;;;;2.20;1.10;;;17.40;70.30;;;;;;6199507;22;20145;-85
2024/02/21 04:04:47;;;;;;;1.67;0.90;;;17.40;70.60;;;;;;6224235;22;20168;-85
2024/02/21 04:12:24;;;;;;;1.50;0.90;;;17.30;70.40;;;;;;6276227;22;20195;-84
2024/02/21 04:14:50;;;;;;;1.63;0.85;;;17.30;70.50;;;;;;6223370;22;20141;-84
2024/02/21 04:17:15;;;;;;;2.97;1.05;;;17.30;70.30;;;;;;6198464;22;20137;-84
2024/02/21 04:19:41;;;;;;;1.40;0.90;;;17.30;70.40;;;;;;6198570;22;20239;-84
2024/02/21 04:22:07;;;;;;;1.25;1.00;;;17.30;70.30;;;;;;6223502;22;20148;-84
2024/02/21 04:24:34;;;;;;;1.20;0.80;;;17.40;70.70;;;;;;6198370;22;20192;-83
2024/02/21 04:27:00;;;;;;;1.23;0.80;;;17.30;70.10;;;;;;6198860;22;20141;-84
2024/02/21 04:29:27;;;;;;;1.75;1.10;;;17.30;70.40;;;;;;6223220;22;20171;-84
2024/02/21 04:31:53;;;;;;;2.80;1.00;;;17.30;70.50;;;;;;6199205;22;20191;-85
2024/02/21 04:34:19;;;;;;;1.38;0.90;;;17.30;70.00;;;;;;6200028;22;20219;-84
2024/02/21 04:36:45;;;;;;;0.80;0.80;;;17.40;70.10;;;;;;6223236;22;20568;-84
2024/02/21 04:39:11;;;;;;;1.67;1.00;;;17.30;70.60;;;;;;6224185;22;20560;-85
2024/02/21 04:41:37;;;;;;;1.98;1.20;;;17.30;70.10;;;;;;6223947;22;20157;-84
2024/02/21 04:44:08;;;;;;;3.85;1.20;;;17.30;70.50;;;;;;6198805;22;20226;-84
2024/02/21 04:51:35;;;;;;;2.03;1.00;;;17.30;70.30;;;;;;6245352;22;20203;-84
2024/02/21 04:54:01;;;;;;;1.80;1.00;;;17.30;70.50;;;;;;6224398;22;20166;-84
2024/02/21 04:56:27;;;;;;;1.65;0.90;;;17.30;70.40;;;;;;6249615;22;20133;-84
2024/02/21 04:58:53;;;;;;;2.25;1.00;;;17.20;70.20;;;;;;6224225;22;20125;-84
2024/02/21 05:01:19;;;;;;;1.25;0.95;;;17.30;70.50;;;;;;6223760;22;20232;-84
2024/02/21 05:03:44;;;;;;;4.30;1.20;;;17.30;70.30;;;;;;6199880;22;20238;-84
2024/02/21 05:06:10;;;;;;;2.42;0.90;;;17.30;70.70;;;;;;6199236;22;20149;-84
2024/02/21 05:08:36;;;;;;;1.27;0.80;;;17.30;70.70;;;;;;6250310;22;20130;-84
2024/02/21 05:11:05;;;;;;;1.17;0.90;;;17.30;70.60;;;;;;6250701;22;20525;-84
2024/02/21 07:00:22;;;;;;;1.45;1.08;;;17.20;70.40;;;;;;6275127;22;20287;-85
2024/02/21 07:02:48;;;;;;;1.88;0.80;;;17.20;70.00;;;;;;6226940;22;20168;-85
2024/02/21 07:05:17;;;;;;;2.35;1.10;;;17.20;70.20;;;;;;6161382;23;20720;-85
2024/02/21 07:07:55;;;;;;;2.45;0.93;;;17.20;69.80;;;;;;6077169;23;20178;-85
2024/02/21 07:10:23;;;;;;;1.27;0.98;;;17.20;69.40;;;;;;6079321;23;20152;-85
2024/02/21 07:12:51;;;;;;;1.83;0.85;;;17.30;69.50;;;;;;6053294;23;20156;-85
2024/02/21 07:15:32;;;;;;;1.17;0.90;;;17.30;69.00;;;;;;6016225;23;20158;-87
2024/02/21 07:18:01;;;;;;;1.05;0.75;;;17.30;69.40;;;;;;5997334;23;20705;-85
2024/02/21 07:20:37;;;;;;;2.60;1.13;;;17.30;68.40;;;;;;5996192;23;20189;-85
2024/02/21 08:26:36;;;;;;;2.60;1.15;;;17.60;68.40;;;;;;6310744;22;20194;-86
2024/02/21 08:29:28;;;;;;;1.92;1.00;;;17.60;68.40;;;;;;6219788;23;20283;-84
2024/02/21 08:32:17;;;;;;;0.95;0.80;;;17.50;68.00;;;;;;6225846;23;20176;-85
2024/02/21 08:34:55;;;;;;;1.77;0.80;;;17.60;68.40;;;;;;6201808;23;20639;-85
2024/02/21 08:37:47;;;;;;;;;;;;;;;;;;;;;
2024/02/21 08:40:30;;;;;;;5.18;1.10;;;17.60;68.50;;;;;;6164822;23;20229;-84
2024/02/21 08:50:23;;;;;;;2.25;0.88;;;17.60;67.80;;;;;;5930020;24;20161;-84
2024/02/21 08:53:11;;;;;;;1.85;1.08;;;17.60;67.80;;;;;;5905053;24;20196;-84
2024/02/21 08:56:11;;;;;;;5.55;1.15;;;17.60;67.30;;;;;;5871901;24;20182;-84
2024/02/21 08:59:33;;;;;;;1.27;0.80;;;17.60;67.90;;;;;;5811075;24;20662;-83
2024/02/21 09:02:20;;;;;;;0.82;0.65;;;17.70;67.90;;;;;;5806565;24;20203;-84
2024/02/21 09:05:51;;;;;;;2.38;0.98;;;17.70;68.00;;;;;;5810108;24;20193;-85
2024/02/21 09:08:40;;;;;;;;;;;;;;;;;;;;;
2024/02/21 09:11:37;;;;;;;1.98;1.08;;;17.60;68.40;;;;;;5683109;25;20162;-84
2024/02/21 09:14:08;;;;;;;6.05;1.13;;;17.70;68.50;;;;;;5690537;25;20165;-84
2024/02/21 09:17:14;;;;;;;;;;;;;;;;;;;;;
2024/02/21 09:19:55;;;;;;;3.20;0.88;;;17.70;68.50;;;;;;5654468;25;20233;-84
2024/02/21 09:22:51;;;;;;;5.13;0.90;;;17.70;68.80;;;;;;5689538;25;20178;-84
2024/02/21 09:26:57;;;;;;;;;;;;;;;;;;;;;
2024/02/21 09:36:28;;;;;;;3.38;1.00;;;17.90;68.20;;;;;;5741025;25;20169;-84
2024/02/21 09:43:53;;;;;;;;;;;;;;;;;;;;;
2024/02/21 09:47:04;;;;;;;6.35;1.05;;;18.00;68.00;;;;;;5685788;25;20210;-85
2024/02/21 09:49:37;;;;;;;3.40;0.98;;;17.90;67.40;;;;;;5663291;25;20215;-83
2024/02/21 09:52:34;;;;;;;5.53;1.35;;;17.90;68.80;;;;;;5669868;25;20177;-84
2024/02/21 09:55:16;;;;;;;;;;;;;;;;;;;;;
2024/02/21 09:57:43;;;;;;;5.03;1.10;;;17.90;68.00;;;;;;5600935;25;20675;-84
2024/02/21 10:00:21;;;;;;;4.03;0.90;;;17.80;68.10;;;;;;5590484;25;20179;-84
2024/02/21 10:03:08;;;;;;;3.15;0.90;;;17.90;67.90;;;;;;5590728;25;20165;-83
2024/02/21 10:05:46;;;;;;;3.30;1.00;;;17.80;68.40;;;;;;5540223;25;20308;-86
2024/02/21 10:08:14;;;;;;;2.00;1.00;;;17.90;68.00;;;;;;5572767;25;20229;-84
2024/02/21 10:10:56;;;;;;;2.17;1.00;;;17.90;67.70;;;;;;5544323;25;20166;-84
2024/02/21 10:13:51;;;;;;;2.55;1.15;;;18.00;67.30;;;;;;5611852;25;20514;-84
2024/02/21 10:16:34;;;;;;;2.60;1.00;;;18.10;67.50;;;;;;5687364;25;20243;-83
2024/02/21 10:19:05;;;;;;;0.77;0.70;;;18.10;67.40;;;;;;5610112;25;20163;-84
2024/02/21 10:21:30;;;;;;;3.28;0.80;;;18.10;66.70;;;;;;5687621;25;20218;-84
2024/02/21 10:23:56;;;;;;;1.38;0.75;;;18.00;67.30;;;;;;5731310;24;20163;-85
2024/02/21 10:26:22;;;;;;;3.05;1.00;;;18.00;67.70;;;;;;5754494;24;20224;-84
2024/02/21 10:28:59;;;;;;;1.38;0.80;;;17.90;67.90;;;;;;5755963;24;20261;-84
2024/02/21 10:31:35;;;;;;;3.10;1.10;;;17.90;68.00;;;;;;5799777;24;20207;-84
2024/02/21 10:34:02;;;;;;;2.58;0.90;;;17.90;67.80;;;;;;5839690;24;20172;-84
2024/02/21 10:36:31;;;;;;;4.20;0.88;;;17.90;68.00;;;;;;5920509;24;20156;-84
2024/02/21 10:39:22;;;;;;;5.10;1.00;;;17.80;68.20;;;;;;6004444;23;20229;-84
2024/02/21 10:41:48;;;;;;;0.95;0.80;;;17.90;68.20;;;;;;5983895;23;20139;-85
2024/02/21 10:44:16;;;;;;;2.25;0.90;;;17.90;68.20;;;;;;5986945;23;20326;-85
2024/02/21 10:46:42;;;;;;;2.88;0.93;;;17.90;68.00;;;;;;5954118;24;20159;-84
2024/02/21 10:49:10;;;;;;;3.28;1.00;;;17.90;68.20;;;;;;5966363;23;20158;-84
2024/02/21 10:51:43;;;;;;;1.25;0.77;;;17.90;68.00;;;;;;6093688;23;20167;-85
2024/02/21 10:54:46;;;;;;;1.85;0.90;;;18.00;68.20;;;;;;6077867;23;20164;-86
2024/02/21 10:57:22;;;;;;;1.75;0.80;;;17.90;68.10;;;;;;6101240;23;20158;-85
2024/02/21 10:59:55;;;;;;;1.05;0.80;;;17.90;69.00;;;;;;6078876;23;20156;-85
2024/02/21 11:02:21;;;;;;;2.08;0.93;;;17.90;68.00;;;;;;6080003;23;20659;-83
2024/02/21 11:04:49;;;;;;;1.83;0.90;;;17.90;68.80;;;;;;6079245;23;20180;-82
2024/02/21 11:07:26;;;;;;;2.08;0.65;;;17.90;68.10;;;;;;6104753;23;20531;-83
2024/02/21 11:09:54;;;;;;;4.10;0.95;;;17.80;68.40;;;;;;6102678;23;20614;-84
2024/02/21 11:12:27;;;;;;;1.75;0.95;;;17.80;68.40;;;;;;6101751;23;20186;-84
2024/02/21 11:15:07;;;;;;;1.45;0.85;;;17.80;67.90;;;;;;6079572;23;20657;-84
2024/02/21 11:17:55;;;;;;;3.00;0.80;;;17.70;68.50;;;;;;6138623;23;20163;-84
2024/02/21 11:20:38;;;;;;;2.63;0.70;;;17.80;68.70;;;;;;6130575;23;20590;-83
2024/02/21 11:23:33;;;;;;;1.55;0.80;;;17.80;68.10;;;;;;6050217;23;20168;-82
2024/02/21 11:26:19;;;;;;;2.85;0.70;;;18.00;67.80;;;;;;6123972;23;20175;-83
2024/02/21 11:28:56;;;;;;;1.48;0.80;;;17.90;68.20;;;;;;6084841;23;20635;-82
2024/02/21 11:31:24;;;;;;;1.20;0.70;;;17.80;68.00;;;;;;6089814;23;20186;-84
2024/02/21 11:33:50;;;;;;;1.35;0.60;;;17.90;67.90;;;;;;6136481;23;20186;-83
2024/02/21 11:36:29;;;;;;;3.05;0.77;;;17.80;68.30;;;;;;6135081;23;20146;-83
2024/02/21 11:38:55;;;;;;;1.50;0.85;;;17.80;68.50;;;;;;6135400;23;20594;-82
2024/02/21 11:41:23;;;;;;;4.03;0.70;;;17.80;68.70;;;;;;6159370;23;20221;-82
2024/02/21 11:43:51;;;;;;;1.45;0.90;;;17.80;68.50;;;;;;6135575;23;20703;-83
2024/02/21 11:46:17;;;;;;;1.10;0.90;;;17.80;68.70;;;;;;6159257;23;20179;-84
2024/02/21 14:12:45;;;;;;;1.92;0.70;;;17.90;67.50;;;;;;6302707;22;20195;-84
2024/02/21 14:19:18;;;;;;;1.27;0.70;;;17.90;67.60;;;;;;6139408;23;20182;-85
2024/02/21 14:21:53;;;;;;;0.80;0.60;;;18.00;67.60;;;;;;6056018;23;20265;-85
2024/02/21 14:24:57;;;;;;;0.90;0.63;;;18.00;66.60;;;;;;5996175;23;20150;-84
2024/02/21 14:34:36;;;;;;;1.25;0.60;;;18.00;67.30;;;;;;5929970;24;20594;-85
2024/02/21 14:38:16;;;;;;;1.20;0.82;;;18.00;67.40;;;;;;5909618;24;20164;-86
2024/02/21 14:40:39;;;;;;;1.13;0.63;;;18.00;67.40;;;;;;5905724;24;20211;-85
2024/02/21 14:43:46;;;;;;;2.88;0.90;;;18.00;67.80;;;;;;5886694;24;20216;-86
2024/02/21 14:46:33;;;;;;;1.33;0.80;;;18.00;67.20;;;;;;5883542;24;20181;-84
2024/02/21 14:49:32;;;;;;;2.42;0.98;;;17.90;68.00;;;;;;5892932;24;20230;-85
2024/02/21 14:52:17;;;;;;;;;;;;;;;;;;;;;
2024/02/21 14:54:48;;;;;;;7.90;1.23;;;17.90;67.90;;;;;;5950260;23;20241;-85
2024/02/21 14:57:17;;;;;;;2.17;0.82;;;17.90;67.70;;;;;;5948154;23;20150;-85
2024/02/21 14:59:45;;;;;;;3.55;1.10;;;17.90;67.50;;;;;;5988490;23;20151;-86
2024/02/21 15:02:20;;;;;;;2.50;0.75;;;18.00;67.60;;;;;;6058883;23;20252;-87
2024/02/21 15:04:47;;;;;;;9.20;1.30;;;18.00;67.70;;;;;;6101369;23;20180;-84
2024/02/21 15:50:35;;;;;;;6.07;1.05;;;18.20;66.70;;;;;;6274396;22;20284;-85
2024/02/21 15:53:02;;;;;;;4.93;0.90;;;18.10;66.60;;;;;;6224392;22;20144;-86
2024/02/21 15:55:28;;;;;;;8.60;1.40;;;18.20;67.30;;;;;;6161780;23;20208;-85
2024/02/21 15:57:55;;;;;;;9.45;1.00;;;18.20;67.60;;;;;;6163683;23;20150;-85
2024/02/21 16:00:23;;;;;;;9.70;0.93;;;18.20;66.80;;;;;;6163876;23;20158;-86
2024/02/21 16:03:00;;;;;;;3.50;1.10;;;18.20;66.40;;;;;;6168236;23;20147;-85
2024/02/21 16:05:37;;;;;;;10.20;1.05;;;18.20;66.70;;;;;;6145063;23;20237;-85
2024/02/21 16:08:07;;;;;;;3.05;1.00;;;18.30;66.50;;;;;;6167315;23;20145;-84
2024/02/21 16:10:39;;;;;;;6.93;1.33;;;18.40;66.30;;;;;;6160375;23;20602;-87
2024/02/21 16:13:06;;;;;;;4.15;0.88;;;18.30;65.80;;;;;;6136294;23;20155;-85
2024/02/21 16:15:35;;;;;;;7.80;0.93;;;18.40;66.10;;;;;;6166991;23;20160;-85
2024/02/21 16:18:02;;;;;;;5.70;0.80;;;18.30;66.80;;;;;;6153353;23;20169;-84
2024/02/21 16:20:28;;;;;;;3.80;1.10;;;18.30;66.70;;;;;;6132715;23;20155;-83
2024/02/21 16:22:54;;;;;;;2.67;1.02;;;18.40;66.40;;;;;;6082938;23;20563;-84
2024/02/21 16:25:21;;;;;;;7.28;1.25;;;18.40;65.80;;;;;;6104239;23;20182;-84
2024/02/21 16:27:51;;;;;;;6.53;0.98;;;18.40;66.10;;;;;;6102206;23;20360;-84
2024/02/21 16:30:17;;;;;;;1.90;0.90;;;18.30;66.80;;;;;;6099236;23;20250;-83
2024/02/21 16:32:43;;;;;;;8.05;1.20;;;18.30;66.70;;;;;;6126703;23;20148;-83
2024/02/21 16:35:09;;;;;;;5.57;0.95;;;18.20;66.40;;;;;;6103483;23;20186;-82
2024/02/21 16:37:36;;;;;;;2.65;0.93;;;18.30;67.00;;;;;;6100624;23;20479;-83
2024/02/21 16:40:05;;;;;;;4.97;0.98;;;18.30;66.30;;;;;;6126934;23;20182;-83
2024/02/21 16:42:58;;;;;;;8.77;0.90;;;18.30;66.90;;;;;;6153112;23;20151;-83
2024/02/21 16:45:24;;;;;;;5.85;1.25;;;18.30;67.00;;;;;;6105526;23;20175;-84
2024/02/21 16:47:50;;;;;;;3.28;0.90;;;18.30;66.50;;;;;;6135496;22;20151;-83
2024/02/21 16:50:16;;;;;;;6.47;1.05;;;18.30;67.10;;;;;;6205791;22;20196;-83
2024/02/21 16:52:47;;;;;;;10.27;1.23;;;18.40;67.00;;;;;;6209025;22;20493;-84
2024/02/21 16:55:21;;;;;;;12.10;1.08;;;18.30;67.40;;;;;;6261578;22;20600;-85
2024/02/21 16:57:47;;;;;;;4.43;0.90;;;18.30;67.60;;;;;;6234942;22;20173;-86
2024/02/21 17:00:13;;;;;;;5.70;1.00;;;18.30;68.00;;;;;;6208391;23;20148;-84
2024/02/21 17:02:40;;;;;;;6.68;1.13;;;18.30;67.00;;;;;;6232529;22;20140;-82
2024/02/21 17:05:06;;;;;;;4.45;0.93;;;18.40;67.40;;;;;;6233821;22;20175;-84
2024/02/21 17:07:33;;;;;;;2.50;0.93;;;18.30;68.90;;;;;;6259122;22;20590;-81
2024/02/21 17:10:06;;;;;;;6.28;0.90;;;18.30;67.90;;;;;;6209067;22;20211;-83
2024/02/21 17:12:36;;;;;;;5.53;1.05;;;18.30;68.20;;;;;;6211019;22;20173;-83
2024/02/21 17:15:11;;;;;;;7.53;0.95;;;18.20;67.70;;;;;;6211551;22;20151;-84
2024/02/21 17:17:42;;;;;;;2.10;1.10;;;18.30;68.20;;;;;;6222834;23;20624;-82
2024/02/21 17:20:08;;;;;;;3.78;0.85;;;18.30;67.70;;;;;;6224521;23;20168;-84
2024/02/21 17:22:39;;;;;;;4.22;0.90;;;18.30;67.70;;;;;;6223846;23;20195;-82
2024/02/21 17:25:10;;;;;;;2.08;0.73;;;18.40;67.70;;;;;;6222614;23;20177;-83
2024/02/21 17:27:37;;;;;;;6.82;1.08;;;18.40;68.10;;;;;;6196907;23;20149;-83
2024/02/21 17:30:05;;;;;;;2.38;0.88;;;18.30;68.00;;;;;;6221561;23;20451;-83
2024/02/21 17:32:34;;;;;;;1.63;0.80;;;18.30;67.80;;;;;;6220180;23;20149;-84
2024/02/21 17:35:11;;;;;;;4.65;0.80;;;18.30;67.70;;;;;;6220743;23;20249;-83
2024/02/21 17:37:52;;;;;;;8.98;1.40;;;18.40;67.80;;;;;;6222682;23;20171;-84
2024/02/21 17:40:29;;;;;;;4.82;0.70;;;18.40;68.70;;;;;;6198676;23;20153;-85
2024/02/21 17:43:01;;;;;;;6.50;1.00;;;18.40;68.00;;;;;;6224120;22;20248;-85
2024/02/21 17:45:39;;;;;;;7.22;1.45;;;18.40;68.30;;;;;;6192469;23;20185;-83
2024/02/21 17:48:07;;;;;;;9.20;0.95;;;18.40;68.50;;;;;;6005568;23;20156;-83
2024/02/21 17:50:33;;;;;;;7.85;1.00;;;18.40;68.10;;;;;;6048777;23;20201;-82
2024/02/21 17:53:00;;;;;;;7.32;1.13;;;18.40;68.50;;;;;;6223709;23;20129;-83
2024/02/21 17:55:26;;;;;;;22.63;1.48;;;18.50;69.30;;;;;;6220708;23;20145;-83
2024/02/21 17:57:54;;;;;;;4.65;1.08;;;18.50;69.20;;;;;;6197146;23;20145;-83
2024/02/21 18:00:21;;;;;;;9.38;1.40;;;18.50;68.80;;;;;;6197908;23;20471;-83
2024/02/21 18:52:43;;;;;;;5.68;0.80;;;18.60;69.30;;;;;;6274645;22;20567;-83
2024/02/21 18:55:18;;;;;;;4.30;0.80;;;18.60;69.80;;;;;;6225565;22;20159;-83
2024/02/21 18:57:44;;;;;;;7.55;1.10;;;18.70;68.80;;;;;;6177466;22;20482;-84
2024/02/21 19:00:15;;;;;;;7.20;0.80;;;18.70;69.10;;;;;;6200671;22;20195;-83
2024/02/21 19:02:41;;;;;;;5.72;0.90;;;18.60;69.80;;;;;;6201943;22;20140;-84
2024/02/21 19:05:07;;;;;;;4.97;0.90;;;18.60;70.20;;;;;;6255093;22;20159;-84
2024/02/21 19:07:34;;;;;;;4.05;0.98;;;18.50;71.00;;;;;;6228131;22;20556;-85
2024/02/21 19:10:03;;;;;;;4.13;0.95;;;18.60;70.20;;;;;;6226087;22;20148;-84
2024/02/21 19:12:31;;;;;;;6.32;1.10;;;18.60;70.50;;;;;;6251921;22;20156;-84
2024/02/21 19:14:57;;;;;;;3.85;0.80;;;18.60;68.80;;;;;;6275884;22;20220;-84
2024/02/21 19:17:23;;;;;;;12.40;1.27;;;18.60;68.40;;;;;;6252516;22;20137;-83
2024/02/21 19:19:49;;;;;;;9.77;1.58;;;18.60;69.40;;;;;;6202495;22;20144;-83
2024/02/21 19:22:15;;;;;;;7.95;0.90;;;18.60;68.70;;;;;;6206229;22;20141;-83
2024/02/21 19:24:41;;;;;;;10.30;0.90;;;18.70;68.50;;;;;;6254163;22;20168;-84
2024/02/21 19:27:07;;;;;;;5.22;0.80;;;18.60;69.10;;;;;;6202658;22;20144;-84
2024/02/21 19:29:33;;;;;;;6.68;1.00;;;18.60;68.90;;;;;;6251419;22;20199;-84
2024/02/21 19:31:58;;;;;;;6.63;1.10;;;18.70;69.50;;;;;;6277103;22;20526;-83
2024/02/21 19:34:24;;;;;;;4.78;0.70;;;18.60;69.00;;;;;;6200210;22;20140;-84
2024/02/21 19:36:50;;;;;;;10.75;1.13;;;18.60;68.90;;;;;;6225662;22;20140;-84
2024/02/21 19:39:23;;;;;;;4.90;1.08;;;18.60;70.60;;;;;;6227550;22;20553;-83
2024/02/21 19:41:49;;;;;;;9.55;1.17;;;18.60;70.70;;;;;;6228768;22;20206;-83
2024/02/21 19:44:15;;;;;;;7.85;1.25;;;18.60;70.20;;;;;;6200514;22;20145;-84
2024/02/21 19:46:40;;;;;;;7.43;0.85;;;18.50;70.00;;;;;;6203232;22;20159;-83
2024/02/21 19:49:08;;;;;;;8.50;1.17;;;18.60;69.40;;;;;;6227656;22;20279;-84
2024/02/21 19:51:34;;;;;;;5.60;1.10;;;18.50;70.50;;;;;;6220073;23;20193;-83
2024/02/21 19:54:03;;;;;;;6.20;1.00;;;18.60;69.50;;;;;;6245134;23;20140;-83
2024/02/21 19:56:30;;;;;;;6.35;0.98;;;18.60;68.60;;;;;;6222560;23;20149;-83
2024/02/21 19:58:56;;;;;;;7.10;1.23;;;18.60;69.20;;;;;;6219805;23;20150;-85
2024/02/21 20:01:22;;;;;;;10.18;1.23;;;18.60;69.80;;;;;;6158784;23;20185;-84
2024/02/21 20:03:49;;;;;;;3.25;0.60;;;18.60;69.70;;;;;;6137030;23;20162;-84
2024/02/21 20:06:19;;;;;;;7.82;0.90;;;18.60;69.60;;;;;;6111639;23;20189;-85
2024/02/21 20:08:45;;;;;;;8.52;1.17;;;18.60;68.70;;;;;;6134794;23;20491;-84
2024/02/21 20:29:25;;;;;;;5.25;0.75;;;18.50;69.50;;;;;;6272657;22;20762;-85
2024/02/21 20:31:51;;;;;;;5.45;1.10;;;18.50;69.70;;;;;;6224858;22;20164;-83
2024/02/21 20:34:17;;;;;;;3.88;0.85;;;18.50;69.90;;;;;;6198864;22;20172;-84
2024/02/21 20:36:43;;;;;;;5.57;0.77;;;18.50;70.30;;;;;;6223187;22;20199;-84
2024/02/21 20:49:46;;;;;;;5.13;0.80;;;18.50;70.90;;;;;;6244591;23;20184;-84
2024/02/21 20:52:12;;;;;;;5.13;0.95;;;18.40;70.10;;;;;;6191078;23;20187;-84
2024/02/21 20:54:38;;;;;;;2.63;0.60;;;18.40;69.90;;;;;;6167896;23;20146;-84
2024/02/21 20:57:04;;;;;;;7.65;0.70;;;18.40;70.80;;;;;;6166164;23;20575;-85
2024/02/21 21:25:24;;;;;;;3.03;0.73;;;18.20;72.10;;;;;;6258901;22;20278;-82
2024/02/21 21:27:50;;;;;;;2.22;0.60;;;18.10;72.00;;;;;;6222891;22;20152;-84
2024/02/21 21:30:20;;;;;;;3.53;0.75;;;18.20;72.00;;;;;;6199197;22;20148;-83
2024/02/21 21:32:50;;;;;;;5.93;0.85;;;18.20;72.20;;;;;;6198915;22;20235;-84
2024/02/21 21:35:16;;;;;;;5.80;0.90;;;18.20;72.30;;;;;;6174037;22;20243;-84
2024/02/21 21:37:46;;;;;;;3.53;0.80;;;18.10;71.70;;;;;;6224394;22;20211;-84
2024/02/21 21:40:13;;;;;;;2.95;0.68;;;18.20;72.10;;;;;;6173253;22;20482;-84
2024/02/21 21:42:39;;;;;;;2.88;0.80;;;18.20;72.40;;;;;;6224741;22;20133;-84
2024/02/21 21:45:06;;;;;;;2.38;0.75;;;18.10;72.20;;;;;;6223623;22;20168;-84
2024/02/21 21:47:34;;;;;;;2.70;0.70;;;18.10;72.20;;;;;;6225154;22;20587;-83
2024/02/21 21:49:59;;;;;;;2.80;0.70;;;18.10;72.60;;;;;;6224460;22;20137;-84
2024/02/21 21:52:25;;;;;;;2.13;0.65;;;18.10;72.60;;;;;;6224724;22;20132;-84
2024/02/21 21:54:51;;;;;;;3.50;1.00;;;18.10;72.30;;;;;;6225285;22;20152;-84
2024/02/21 21:57:17;;;;;;;1.63;0.70;;;18.10;72.50;;;;;;6199800;22;20141;-85
2024/02/21 21:59:43;;;;;;;2.92;0.80;;;18.00;72.50;;;;;;6249696;22;20136;-84
2024/02/21 22:02:08;;;;;;;4.85;0.70;;;18.10;72.50;;;;;;6249767;22;20164;-84
2024/02/21 22:04:34;;;;;;;4.45;0.77;;;18.00;72.60;;;;;;6276560;22;20129;-84
2024/02/21 22:07:00;;;;;;;5.32;0.80;;;18.00;72.80;;;;;;6199836;22;20140;-84
2024/02/21 22:09:26;;;;;;;4.32;1.00;;;18.00;72.60;;;;;;6249636;22;20184;-84
2024/02/21 22:11:52;;;;;;;2.90;0.80;;;18.00;72.50;;;;;;6199313;22;20136;-83
2024/02/21 22:14:17;;;;;;;6.45;0.98;;;18.00;72.70;;;;;;6224134;22;20140;-84
2024/02/21 22:16:44;;;;;;;1.80;0.65;;;18.00;72.90;;;;;;6198921;22;20171;-84
2024/02/21 22:19:10;;;;;;;4.57;0.70;;;18.00;72.20;;;;;;6224611;22;20121;-84
2024/02/21 22:21:35;;;;;;;3.90;0.60;;;18.00;72.70;;;;;;6199911;22;20137;-84
2024/02/21 22:24:01;;;;;;;4.00;0.82;;;18.00;72.30;;;;;;6198996;22;20141;-84
2024/02/21 22:26:27;;;;;;;7.10;1.00;;;18.00;72.10;;;;;;6223525;22;20197;-84
2024/02/21 22:28:55;;;;;;;2.25;0.68;;;17.90;72.40;;;;;;6249683;22;20514;-84
2024/02/21 22:31:25;;;;;;;4.60;0.80;;;17.90;72.70;;;;;;6250177;22;20121;-84
2024/02/21 22:33:51;;;;;;;1.38;0.63;;;17.90;72.80;;;;;;6175517;22;20198;-84
2024/02/21 22:36:17;;;;;;;3.08;0.70;;;17.90;72.80;;;;;;6226559;22;20199;-84
2024/02/21 22:38:43;;;;;;;2.55;0.50;;;17.90;72.90;;;;;;6226237;22;20137;-83
2024/02/21 22:41:08;;;;;;;3.22;0.70;;;17.90;73.80;;;;;;6226787;22;20133;-84
2024/02/21 22:43:34;;;;;;;4.57;0.63;;;17.90;72.60;;;;;;6226302;22;20502;-84
2024/02/21 22:46:01;;;;;;;3.80;0.70;;;17.90;72.40;;;;;;6200415;22;20188;-84
2024/02/21 22:48:27;;;;;;;2.00;0.75;;;18.00;72.60;;;;;;6225786;22;20141;-84
2024/02/21 22:50:53;;;;;;;1.30;0.60;;;17.90;72.40;;;;;;6200043;22;20144;-83
2024/02/21 22:53:19;;;;;;;3.88;0.68;;;17.90;72.70;;;;;;6200800;22;20460;-84
2024/02/21 22:55:45;;;;;;;3.42;1.05;;;17.90;72.70;;;;;;6226355;22;20187;-84
2024/02/21 22:58:11;;;;;;;2.17;0.68;;;17.80;72.80;;;;;;6225494;22;20140;-84
2024/02/21 23:00:37;;;;;;;2.28;0.60;;;17.90;72.60;;;;;;6224633;22;20149;-85
2024/02/21 23:03:03;;;;;;;4.07;0.80;;;17.90;72.10;;;;;;6250917;22;20125;-84
2024/02/21 23:05:29;;;;;;;3.92;1.02;;;17.90;72.70;;;;;;6225817;22;20181;-84
2024/02/21 23:07:55;;;;;;;4.38;0.70;;;17.80;72.60;;;;;;6200951;22;20180;-84
2024/02/21 23:10:25;;;;;;;2.22;0.70;;;17.80;72.90;;;;;;6250766;22;20129;-84